Time;durP1;ratioP1;P1;durP2;ratioP2;P2;SDS_P1;SDS_P2;PMS_P1;PMS_P2;Temp;Humidity;BMP_temperature;BMP_pressure;BME280_temperature;BME280_humidity;BME280_pressure;Samples;Min_cycle;Max_cycle;Signal;HPM_P1;HPM_P2
2023/04/23 00:02:13;;;;;;;3.00;1.80;;;;;;;16.61;57.80;98129.38;5111906;28;42297;-78
2023/04/23 00:04:49;;;;;;;1.97;1.77;;;;;;;16.65;57.57;98137.00;5095062;28;40925;-79
2023/04/23 00:07:19;;;;;;;2.33;1.80;;;;;;;16.62;57.43;98141.75;5095075;28;41981;-78
2023/04/23 00:09:47;;;;;;;2.83;1.73;;;;;;;16.49;57.29;98123.41;5111540;28;41789;-80
2023/04/23 00:12:15;;;;;;;4.07;1.57;;;;;;;16.57;57.39;98144.88;5094873;28;41299;-79
2023/04/23 00:14:45;;;;;;;2.10;1.90;;;;;;;16.51;57.42;98138.31;5111315;27;41087;-80
2023/04/23 00:17:13;;;;;;;2.53;1.87;;;;;;;16.50;58.17;98130.44;5111892;28;42462;-79
2023/04/23 00:19:40;;;;;;;3.03;2.20;;;;;;;16.45;57.83;98135.38;5112322;28;42882;-78
2023/04/23 00:22:08;;;;;;;3.27;2.00;;;;;;;16.44;57.70;98134.53;5094909;28;42330;-79
2023/04/23 00:24:37;;;;;;;2.63;1.80;;;;;;;16.45;57.62;98127.38;5112075;28;40948;-78
2023/04/23 00:27:05;;;;;;;2.47;1.70;;;;;;;16.42;57.73;98131.19;5113167;28;41535;-80
2023/04/23 00:29:33;;;;;;;1.70;1.60;;;;;;;16.44;57.57;98133.72;5094573;28;41873;-79
2023/04/23 00:32:02;;;;;;;2.77;1.70;;;;;;;16.44;57.33;98128.38;5111645;28;41138;-79
2023/04/23 00:34:31;;;;;;;1.83;1.40;;;;;;;16.44;57.23;98133.72;5111689;28;39980;-79
2023/04/23 00:36:58;;;;;;;1.77;1.67;;;;;;;16.45;57.31;98138.06;5111975;28;41813;-79
2023/04/23 00:39:26;;;;;;;1.67;1.57;;;;;;;16.43;57.25;98143.56;5111742;28;42834;-80
2023/04/23 00:41:53;;;;;;;2.10;1.70;;;;;;;16.43;56.94;98142.72;5094811;28;41243;-79
2023/04/23 00:44:21;;;;;;;2.10;1.90;;;;;;;16.42;57.41;98146.41;5094620;28;39952;-79
2023/04/23 00:46:50;;;;;;;3.67;2.10;;;;;;;16.35;57.58;98131.94;5111805;28;41762;-79
2023/04/23 00:49:20;;;;;;;2.43;2.23;;;;;;;16.41;58.04;98140.22;5111413;28;42667;-80
2023/04/23 00:51:48;;;;;;;3.37;1.90;;;;;;;16.37;57.97;98143.31;5094734;28;41292;-79
2023/04/23 00:54:15;;;;;;;2.33;2.00;;;;;;;16.42;58.06;98146.41;5111571;28;41627;-80
2023/04/23 00:56:43;;;;;;;3.33;2.40;;;;;;;16.44;58.78;98144.41;5111634;28;41782;-80
2023/04/23 00:59:11;;;;;;;2.20;1.90;;;;;;;16.45;58.39;98148.75;5112550;28;42981;-80
2023/04/23 01:01:39;;;;;;;1.90;1.57;;;;;;;16.46;58.26;98143.25;5094322;28;42348;-79
2023/04/23 01:04:09;;;;;;;2.67;1.93;;;;;;;16.50;58.09;98154.50;5111091;28;40749;-79
2023/04/23 01:06:38;;;;;;;2.17;1.80;;;;;;;16.50;58.34;98144.66;5111569;28;41881;-79
2023/04/23 01:09:08;;;;;;;4.23;2.07;;;;;;;16.49;57.69;98153.66;5094145;28;42086;-79
2023/04/23 01:11:39;;;;;;;2.20;2.10;;;;;;;16.46;57.94;98148.59;5093888;28;41279;-79
2023/04/23 01:14:07;;;;;;;2.57;1.80;;;;;;;16.48;57.83;98141.28;5094099;28;40756;-78
2023/04/23 01:16:35;;;;;;;2.10;1.90;;;;;;;16.20;58.10;98104.03;5111379;28;41056;-79
2023/04/23 01:19:02;;;;;;;3.23;2.03;;;;;;;16.46;58.47;98142.41;5110931;28;43082;-78
2023/04/23 01:21:32;;;;;;;2.80;1.93;;;;;;;16.44;58.42;98150.56;5111554;28;41319;-79
2023/04/23 01:24:01;;;;;;;2.10;1.90;;;;;;;16.04;58.92;98089.50;5093988;28;41106;-79
2023/04/23 01:26:29;;;;;;;4.03;2.20;;;;;;;16.34;59.48;98132.91;5096392;28;41021;-79
2023/04/23 01:28:57;;;;;;;4.63;2.80;;;;;;;16.24;60.00;98135.66;5114745;28;43947;-79
2023/04/23 01:31:25;;;;;;;2.93;2.50;;;;;;;16.15;60.52;98132.06;5097928;28;42027;-79
2023/04/23 01:33:54;;;;;;;2.90;2.10;;;;;;;16.10;60.69;98136.97;5097325;28;39914;-79
2023/04/23 01:36:22;;;;;;;2.47;1.93;;;;;;;16.00;60.32;98125.50;5114658;28;41881;-79
2023/04/23 01:38:52;;;;;;;2.70;2.20;;;;;;;16.11;60.50;98144.00;5114570;28;42812;-78
2023/04/23 01:41:22;;;;;;;2.93;2.20;;;;;;;16.07;61.78;98133.78;5114765;28;42277;-79
2023/04/23 01:43:50;;;;;;;2.57;2.13;;;;;;;15.96;62.85;98126.78;5097391;28;40203;-79
2023/04/23 01:46:18;;;;;;;3.57;2.40;;;;;;;15.90;62.84;98142.56;5097516;28;42105;-80
2023/04/23 01:48:46;;;;;;;2.93;2.63;;;;;;;15.75;63.23;98127.00;5114223;28;42985;-79
2023/04/23 01:51:14;;;;;;;5.07;2.27;;;;;;;15.76;64.87;98136.72;5097309;28;41253;-78
2023/04/23 01:53:41;;;;;;;3.27;2.63;;;;;;;15.68;65.05;98146.44;5115348;28;40985;-79
2023/04/23 01:56:09;;;;;;;3.07;2.13;;;;;;;15.61;65.05;98148.00;5097502;28;41684;-79
2023/04/23 01:58:38;;;;;;;3.40;2.30;;;;;;;15.54;67.83;98133.53;5096981;28;41483;-78
2023/04/23 02:01:06;;;;;;;2.57;2.37;;;;;;;15.33;68.23;98121.19;5114270;28;42444;-79
2023/04/23 02:03:34;;;;;;;2.93;2.63;;;;;;;15.23;68.26;98117.72;5114230;28;40852;-79
2023/04/23 02:06:03;;;;;;;4.30;2.50;;;;;;;15.31;68.51;98136.53;5097244;28;40714;-79
2023/04/23 02:08:31;;;;;;;3.53;2.50;;;;;;;15.27;68.69;98136.94;5113817;28;43838;-79
2023/04/23 02:10:59;;;;;;;2.33;2.13;;;;;;;15.23;68.63;98141.72;5114045;28;42985;-78
2023/04/23 02:13:26;;;;;;;3.83;2.70;;;;;;;15.16;71.44;98129.94;5113726;28;41789;-79
2023/04/23 02:15:55;;;;;;;2.50;2.20;;;;;;;15.07;71.83;98136.13;5115491;28;41491;-79
2023/04/23 02:18:23;;;;;;;3.77;2.70;;;;;;;15.02;71.96;98143.69;5113440;28;43860;-79
2023/04/23 02:20:51;;;;;;;3.87;2.30;;;;;;;15.02;71.35;98149.03;5113913;28;42984;-79
2023/04/23 02:23:18;;;;;;;2.37;1.87;;;;;;;15.04;72.44;98150.59;5096534;28;39930;-79
2023/04/23 02:25:46;;;;;;;3.07;2.50;;;;;;;15.04;72.42;98149.75;5097044;28;40643;-79
2023/04/23 02:28:14;;;;;;;4.03;2.60;;;;;;;14.94;72.03;98140.91;5096776;28;42074;-79
2023/04/23 02:30:45;;;;;;;3.77;2.40;;;;;;;15.06;71.77;98150.44;5096703;28;42417;-78
2023/04/23 02:33:14;;;;;;;2.87;2.60;;;;;;;14.91;71.42;98135.84;5096601;28;39829;-79
2023/04/23 02:35:42;;;;;;;3.03;2.20;;;;;;;15.01;71.51;98158.00;5096734;28;40445;-79
2023/04/23 02:38:10;;;;;;;2.97;2.40;;;;;;;14.93;70.84;98139.22;5113144;28;41603;-79
2023/04/23 02:40:37;;;;;;;2.53;2.20;;;;;;;14.92;70.73;98142.88;5113809;28;41283;-78
2023/04/23 02:43:04;;;;;;;3.70;2.10;;;;;;;14.90;71.99;98134.16;5113462;28;40889;-79
2023/04/23 02:45:32;;;;;;;3.27;2.13;;;;;;;14.87;72.64;98139.78;5114737;28;41632;-78
2023/04/23 02:48:00;;;;;;;5.43;2.33;;;;;;;14.93;73.87;98155.22;5096456;28;42631;-79
2023/04/23 02:50:29;;;;;;;3.27;2.20;;;;;;;14.88;73.61;98162.78;5096368;28;41413;-79
2023/04/23 02:52:57;;;;;;;3.37;2.30;;;;;;;14.86;74.08;98162.06;5113571;28;41145;-79
2023/04/23 02:55:24;;;;;;;2.73;2.10;;;;;;;14.84;73.82;98166.69;5113408;28;41839;-78
2023/04/23 02:57:52;;;;;;;2.70;2.40;;;;;;;14.83;74.58;98159.72;5113514;28;43820;-79
2023/04/23 03:00:20;;;;;;;2.70;2.50;;;;;;;14.81;75.12;98172.34;5113448;28;42314;-78
2023/04/23 03:02:47;;;;;;;2.80;2.37;;;;;;;14.80;74.66;98165.31;5096431;28;40955;-79
2023/04/23 03:05:15;;;;;;;2.50;2.30;;;;;;;14.79;75.14;98163.63;5096058;28;41799;-78
2023/04/23 03:07:44;;;;;;;2.63;2.27;;;;;;;14.79;74.75;98163.63;5113284;28;42803;-78
2023/04/23 03:10:12;;;;;;;3.37;2.67;;;;;;;14.75;75.04;98160.38;5095663;28;41361;-79
2023/04/23 03:12:40;;;;;;;3.60;2.47;;;;;;;14.66;75.20;98151.41;5113405;28;41884;-79
2023/04/23 03:15:08;;;;;;;3.60;2.90;;;;;;;14.74;74.60;98172.03;5113014;28;41503;-78
2023/04/23 03:17:37;;;;;;;2.40;2.20;;;;;;;14.76;75.04;98167.41;5095801;28;42826;-78
2023/04/23 03:20:10;;;;;;;2.53;2.00;;;;;;;14.81;75.63;98172.34;5095626;28;42280;-79
2023/04/23 03:22:38;;;;;;;2.40;2.20;;;;;;;14.83;74.73;98170.38;5110132;28;40920;-79
2023/04/23 03:25:08;;;;;;;4.90;3.47;;;;;;;14.84;75.20;98175.53;5112906;28;41693;-78
2023/04/23 03:27:36;;;;;;;2.10;1.90;;;;;;;14.86;74.89;98173.59;5095697;28;41311;-79
2023/04/23 03:30:04;;;;;;;3.23;2.20;;;;;;;14.88;75.05;98170.78;5095793;28;42713;-78
2023/04/23 03:32:31;;;;;;;3.63;2.30;;;;;;;14.85;75.19;98173.72;5095637;28;40957;-79
2023/04/23 03:34:59;;;;;;;2.83;2.27;;;;;;;14.76;75.33;98164.75;5112491;28;40692;-78
2023/04/23 03:37:27;;;;;;;2.07;1.97;;;;;;;14.78;75.21;98173.44;5113033;28;42296;-78
2023/04/23 03:39:55;;;;;;;2.40;2.20;;;;;;;14.81;75.16;98178.50;5095459;28;42347;-78
2023/04/23 03:42:24;;;;;;;2.63;2.37;;;;;;;14.82;74.67;98176.69;5095608;28;39887;-78
2023/04/23 03:44:54;;;;;;;2.10;1.90;;;;;;;14.70;75.07;98155.50;5095641;28;40624;-79
2023/04/23 03:47:21;;;;;;;2.07;1.70;;;;;;;14.87;74.60;98177.09;5095239;27;43327;-80
2023/04/23 03:49:49;;;;;;;2.40;2.17;;;;;;;14.91;74.19;98181.19;5111594;28;42232;-79
2023/04/23 03:52:17;;;;;;;2.80;2.03;;;;;;;14.94;73.94;98188.91;5112704;28;41709;-79
2023/04/23 03:54:45;;;;;;;2.87;1.87;;;;;;;14.86;74.06;98175.41;5112426;28;42441;-80
2023/04/23 03:57:17;;;;;;;2.27;2.07;;;;;;;14.91;74.26;98181.19;5109522;28;42792;-78
2023/04/23 04:00:02;;;;;;;2.37;2.10;;;;;;;14.87;74.40;98171.75;5111981;28;43299;-79
2023/04/23 04:02:41;;;;;;;2.20;2.00;;;;;;;14.97;74.03;98194.78;5112415;28;39592;-79
2023/04/23 04:05:09;;;;;;;1.80;1.67;;;;;;;14.99;73.94;98197.31;5112390;28;41611;-79
2023/04/23 04:07:37;;;;;;;2.40;2.20;;;;;;;15.00;74.40;98196.31;5095398;28;42690;-79
2023/04/23 04:10:06;;;;;;;2.80;2.17;;;;;;;14.96;73.99;98192.28;5094292;28;41237;-79
2023/04/23 04:12:35;;;;;;;2.40;1.90;;;;;;;14.96;74.41;98189.59;5112427;28;40902;-79
2023/04/23 04:15:04;;;;;;;2.37;1.90;;;;;;;14.97;74.49;98191.25;5112185;28;41857;-79
2023/04/23 04:17:32;;;;;;;2.10;1.90;;;;;;;14.96;74.46;98194.94;5095104;28;42916;-80
2023/04/23 04:20:00;;;;;;;3.17;1.97;;;;;;;14.99;74.40;98189.31;5111976;28;41154;-78
2023/04/23 04:22:28;;;;;;;2.00;1.73;;;;;;;14.99;73.92;98194.63;5112522;28;40872;-79
2023/04/23 04:24:56;;;;;;;3.40;2.00;;;;;;;15.04;74.17;98189.75;5094994;28;40821;-78
2023/04/23 04:27:24;;;;;;;2.33;1.60;;;;;;;15.05;73.71;98196.75;5113125;28;43897;-78
2023/04/23 04:29:51;;;;;;;2.77;1.90;;;;;;;15.04;73.96;98192.41;5094844;28;41447;-79
2023/04/23 04:32:22;;;;;;;2.23;1.90;;;;;;;15.03;73.77;98190.72;5094872;28;40124;-79
2023/04/23 04:34:50;;;;;;;3.00;1.77;;;;;;;15.06;73.54;98188.63;5112091;28;41607;-79
2023/04/23 04:37:17;;;;;;;2.10;1.90;;;;;;;15.08;73.73;98188.50;5094842;28;41870;-79
2023/04/23 04:39:45;;;;;;;2.13;1.97;;;;;;;15.07;73.36;98189.47;5111595;28;42301;-79
2023/04/23 04:42:13;;;;;;;1.80;1.70;;;;;;;15.08;73.68;98186.63;5112002;28;41708;-78
2023/04/23 04:44:42;;;;;;;1.77;1.67;;;;;;;15.08;73.69;98196.50;5094297;28;40691;-78
2023/04/23 04:47:10;;;;;;;1.77;1.67;;;;;;;15.07;73.09;98194.81;5094611;28;41880;-79
2023/04/23 04:49:39;;;;;;;1.63;1.53;;;;;;;14.96;73.05;98186.94;5094293;28;41315;-78
2023/04/23 04:52:07;;;;;;;2.30;2.10;;;;;;;15.06;72.71;98204.63;5111957;28;40760;-79
2023/04/23 04:54:35;;;;;;;2.27;1.53;;;;;;;15.06;72.62;98206.44;5111710;28;42821;-78
2023/04/23 04:57:02;;;;;;;2.00;1.60;;;;;;;15.03;72.72;98201.38;5111836;28;43747;-79
2023/04/23 04:59:30;;;;;;;1.60;1.50;;;;;;;15.09;72.62;98198.16;5111500;27;42335;-79
2023/04/23 05:01:58;;;;;;;2.20;1.97;;;;;;;15.05;71.99;98192.28;5094263;28;40002;-79
2023/04/23 05:04:26;;;;;;;1.63;1.53;;;;;;;15.18;71.99;98207.16;5094410;28;40623;-79
2023/04/23 05:06:55;;;;;;;1.70;1.60;;;;;;;15.17;71.24;98200.97;5112714;28;42899;-79
2023/04/23 05:09:22;;;;;;;2.13;1.93;;;;;;;15.20;71.09;98206.03;5111011;28;43359;-79
2023/04/23 05:11:50;;;;;;;1.60;1.50;;;;;;;15.14;71.02;98197.75;5112427;28;41082;-79
2023/04/23 05:14:18;;;;;;;1.70;1.47;;;;;;;15.28;70.92;98219.50;5111209;28;43225;-79
2023/04/23 05:16:45;;;;;;;1.87;1.50;;;;;;;15.31;70.74;98229.06;5094489;28;42873;-79
2023/04/23 05:19:13;;;;;;;1.50;1.40;;;;;;;15.32;70.72;98230.75;5110987;28;42360;-79
2023/04/23 05:21:41;;;;;;;2.07;1.87;;;;;;;15.31;71.09;98229.06;5094231;28;39944;-79
2023/04/23 05:24:10;;;;;;;2.57;2.07;;;;;;;15.32;71.00;98228.91;5111218;28;40674;-79
2023/04/23 05:26:38;;;;;;;1.83;1.73;;;;;;;15.25;70.65;98214.44;5111340;28;43754;-79
2023/04/23 05:29:05;;;;;;;2.50;2.00;;;;;;;15.35;71.19;98231.28;5111266;28;42470;-79
2023/04/23 05:31:33;;;;;;;2.17;1.97;;;;;;;15.37;71.01;98233.81;5094388;28;39800;-78
2023/04/23 05:34:00;;;;;;;2.03;1.80;;;;;;;15.40;70.83;98238.88;5110846;28;41798;-79
2023/04/23 05:36:28;;;;;;;2.70;1.97;;;;;;;15.42;71.09;98232.41;5093900;28;42014;-79
2023/04/23 05:38:56;;;;;;;1.97;1.73;;;;;;;15.42;71.23;98232.41;5111988;28;42161;-79
2023/04/23 05:41:25;;;;;;;1.90;1.80;;;;;;;15.46;71.26;98249.81;5111164;28;41120;-79
2023/04/23 05:43:53;;;;;;;1.87;1.60;;;;;;;15.46;71.12;98233.81;5110778;28;41562;-78
2023/04/23 05:46:20;;;;;;;2.57;2.00;;;;;;;15.56;70.90;98249.03;5093753;28;42967;-79
2023/04/23 05:48:48;;;;;;;1.83;1.67;;;;;;;15.67;71.19;98247.03;5110781;28;42347;-79
2023/04/23 05:51:16;;;;;;;1.83;1.63;;;;;;;15.74;70.90;98252.63;5111912;28;41855;-79
2023/04/23 05:53:43;;;;;;;2.17;1.60;;;;;;;15.80;70.82;98244.91;5111757;28;41944;-78
2023/04/23 05:56:11;;;;;;;1.80;1.70;;;;;;;15.86;70.59;98247.97;5112030;28;43692;-79
2023/04/23 05:58:40;;;;;;;1.80;1.70;;;;;;;15.86;70.30;98254.16;5110766;28;42363;-78
2023/04/23 06:01:08;;;;;;;2.87;2.57;;;;;;;15.82;70.30;98250.09;5093641;28;40252;-78
2023/04/23 06:03:36;;;;;;;2.93;2.40;;;;;;;15.61;70.61;98225.41;5110299;28;40854;-79
2023/04/23 06:06:03;;;;;;;2.30;2.10;;;;;;;15.73;71.05;98256.28;5093115;28;42898;-78
2023/04/23 06:08:31;;;;;;;1.90;1.80;;;;;;;15.44;70.44;98209.09;5093244;28;41229;-78
2023/04/23 06:11:00;;;;;;;2.03;1.83;;;;;;;15.36;70.56;98211.63;5110149;27;40291;-79
2023/04/23 06:13:29;;;;;;;2.30;2.10;;;;;;;15.69;70.14;98260.25;5113604;28;40576;-79
2023/04/23 06:15:58;;;;;;;2.07;1.90;;;;;;;15.71;70.33;98258.25;5115126;28;43684;-78
2023/04/23 06:18:26;;;;;;;2.00;1.80;;;;;;;15.75;69.92;98260.50;5113373;28;41179;-78
2023/04/23 06:20:55;;;;;;;2.23;1.97;;;;;;;15.97;70.19;98261.16;5114123;28;41079;-78
2023/04/23 06:23:26;;;;;;;2.13;1.73;;;;;;;16.31;69.37;98266.84;5111056;28;42681;-78
2023/04/23 06:25:53;;;;;;;2.10;1.90;;;;;;;16.48;68.40;98242.00;5096559;28;41672;-78
2023/04/23 06:28:21;;;;;;;2.20;2.00;;;;;;;17.13;67.08;98272.22;5096263;28;42074;-80
2023/04/23 06:31:22;;;;;;;2.33;2.13;;;;;;;17.54;65.65;98249.34;5080665;27;41853;-78
2023/04/23 06:33:50;;;;;;;2.33;2.00;;;;;;;17.89;63.66;98276.13;5113376;28;41828;-79
2023/04/23 06:36:18;;;;;;;2.53;1.90;;;;;;;18.08;62.86;98277.75;5113613;28;43768;-78
2023/04/23 06:38:46;;;;;;;2.33;1.50;;;;;;;17.93;61.19;98221.22;5113746;28;42356;-80
2023/04/23 06:41:14;;;;;;;2.80;1.87;;;;;;;18.40;61.05;98260.19;5113644;28;39968;-79
2023/04/23 06:43:42;;;;;;;1.80;1.70;;;;;;;18.77;59.81;98284.88;5114605;28;42612;-79
2023/04/23 06:46:15;;;;;;;1.77;1.67;;;;;;;18.92;58.91;98259.09;5111214;28;43799;-80
2023/04/23 06:48:45;;;;;;;1.90;1.70;;;;;;;19.24;58.11;98277.13;5096034;28;42025;-79
2023/04/23 06:51:12;;;;;;;2.20;1.90;;;;;;;19.34;57.16;98285.88;5114566;28;41968;-78
2023/04/23 06:53:40;;;;;;;1.63;1.50;;;;;;;19.38;56.05;98287.25;5114575;28;42725;-78
2023/04/23 06:56:08;;;;;;;1.87;1.70;;;;;;;19.40;54.40;98303.19;5114622;28;44060;-79
2023/04/23 06:58:36;;;;;;;1.47;1.37;;;;;;;19.38;54.80;98295.28;5113253;28;42113;-78
2023/04/23 07:01:13;;;;;;;1.60;1.50;;;;;;;19.34;54.83;98277.81;5096198;28;39834;-78
2023/04/23 07:03:43;;;;;;;1.70;1.60;;;;;;;19.48;53.74;98305.88;5113142;28;41875;-78
2023/04/23 07:06:12;;;;;;;2.70;1.50;;;;;;;19.63;54.58;98290.81;5112973;28;42823;-79
2023/04/23 07:08:40;;;;;;;1.80;1.60;;;;;;;19.88;53.99;98290.84;5112957;28;42378;-77
2023/04/23 07:11:09;;;;;;;2.07;1.53;;;;;;;20.01;52.47;98300.06;5112976;28;41686;-78
2023/04/23 07:13:38;;;;;;;1.57;1.47;;;;;;;20.11;52.08;98305.25;5096937;28;20223;-77
2023/04/23 07:16:06;;;;;;;1.43;1.33;;;;;;;20.19;51.28;98309.78;5113034;28;42804;-78
2023/04/23 07:18:34;;;;;;;1.73;1.43;;;;;;;20.28;51.03;98309.59;5112773;28;41599;-77
2023/04/23 07:21:02;;;;;;;1.37;1.27;;;;;;;20.43;51.00;98297.16;5114245;28;40782;-78
2023/04/23 07:23:31;;;;;;;1.53;1.30;;;;;;;20.52;49.73;98310.63;5111622;27;42702;-79
2023/04/23 07:25:59;;;;;;;1.90;1.80;;;;;;;20.37;49.79;98308.63;5114012;28;43750;-80
2023/04/23 07:28:26;;;;;;;1.87;1.60;;;;;;;20.25;50.15;98298.38;5095462;28;42547;-78
2023/04/23 07:30:54;;;;;;;3.00;1.73;;;;;;;20.34;50.50;98303.56;5112329;28;40895;-78
2023/04/23 07:33:22;;;;;;;1.50;1.40;;;;;;;20.60;50.15;98307.91;5111957;28;42492;-79
2023/04/23 07:35:50;;;;;;;1.40;1.30;;;;;;;20.66;50.04;98301.81;5113464;28;42695;-78
2023/04/23 07:38:17;;;;;;;1.77;1.67;;;;;;;20.94;48.59;98304.91;5111771;28;42267;-77
2023/04/23 07:40:47;;;;;;;1.80;1.40;;;;;;;21.01;49.01;98309.44;5111944;28;40928;-79
2023/04/23 07:43:15;;;;;;;1.60;1.50;;;;;;;21.29;47.94;98314.34;5112895;28;41815;-78
2023/04/23 07:45:43;;;;;;;2.90;1.43;;;;;;;21.58;46.76;98325.31;5095738;28;41458;-78
2023/04/23 07:48:10;;;;;;;1.60;1.50;;;;;;;21.46;47.13;98315.94;5112658;28;41274;-78
2023/04/23 07:50:38;;;;;;;1.50;1.40;;;;;;;21.54;46.87;98312.34;5095571;28;39834;-77
2023/04/23 07:53:06;;;;;;;2.60;1.43;;;;;;;22.67;45.05;98308.69;5112635;28;41572;-79
2023/04/23 07:55:33;;;;;;;1.30;1.20;;;;;;;22.45;45.02;98323.09;5113616;28;42872;-80
2023/04/23 07:58:02;;;;;;;1.47;1.37;;;;;;;22.20;44.83;98330.59;5095362;28;42404;-77
2023/04/23 08:00:30;;;;;;;1.33;1.10;;;;;;;21.94;45.47;98324.72;5112660;28;40999;-78
2023/04/23 08:02:58;;;;;;;1.47;1.37;;;;;;;21.77;45.75;98319.44;5113497;28;42556;-79
2023/04/23 08:05:26;;;;;;;1.40;1.30;;;;;;;21.63;46.10;98317.53;5113290;28;43836;-78
2023/04/23 08:07:53;;;;;;;1.53;1.40;;;;;;;21.59;46.26;98316.22;5112070;28;42632;-78
2023/04/23 08:10:21;;;;;;;2.10;1.33;;;;;;;21.56;46.09;98308.47;5094547;28;39992;-78
2023/04/23 08:12:49;;;;;;;1.50;1.40;;;;;;;21.71;46.40;98298.59;5112138;28;41827;-79
2023/04/23 08:15:18;;;;;;;1.83;1.40;;;;;;;22.36;45.88;98303.47;5095199;28;41639;-78
2023/04/23 08:17:45;;;;;;;1.63;1.37;;;;;;;22.41;45.57;98313.69;5094963;28;42304;-79
2023/04/23 08:20:13;;;;;;;1.57;1.47;;;;;;;22.03;45.52;98286.72;5113342;28;41827;-79
2023/04/23 08:22:41;;;;;;;3.60;2.03;;;;;;;22.34;44.29;98310.91;5094761;28;40967;-78
2023/04/23 08:25:09;;;;;;;2.03;1.60;;;;;;;22.24;44.20;98310.34;5111889;28;41689;-78
2023/04/23 08:27:37;;;;;;;2.67;1.90;;;;;;;22.19;44.22;98307.34;5111951;28;41628;-79
2023/04/23 08:30:07;;;;;;;2.00;1.80;;;;;;;22.10;44.78;98298.47;5094993;28;40226;-79
2023/04/23 08:32:36;;;;;;;2.83;1.60;;;;;;;21.88;44.41;98293.09;5111807;28;42474;-78
2023/04/23 08:35:04;;;;;;;1.83;1.67;;;;;;;21.62;44.55;98294.31;5111038;27;41820;-79
2023/04/23 08:37:32;;;;;;;1.80;1.70;;;;;;;21.49;44.88;98294.06;5112080;28;41264;-79
2023/04/23 08:40:00;;;;;;;1.90;1.80;;;;;;;23.00;43.50;98292.13;5113318;28;41046;-78
2023/04/23 08:42:38;;;;;;;3.07;2.20;;;;;;;24.26;40.67;98314.09;5112661;28;43203;-78
2023/04/23 08:45:07;;;;;;;2.17;1.50;;;;;;;24.04;41.05;98301.59;5111450;28;42937;-79
2023/04/23 08:47:41;;;;;;;3.00;1.87;;;;;;;25.64;38.33;98328.47;5111521;28;42328;-80
2023/04/23 08:50:12;;;;;;;2.67;1.93;;;;;;;27.09;37.04;98311.31;5094231;28;40886;-80
2023/04/23 08:52:42;;;;;;;1.90;1.80;;;;;;;27.99;34.92;98329.31;5111053;28;42795;-80
2023/04/23 08:55:10;;;;;;;3.20;2.10;;;;;;;29.07;32.83;98343.47;5111550;28;43216;-79
2023/04/23 08:57:40;;;;;;;3.00;1.80;;;;;;;29.43;32.77;98345.41;5094258;28;41261;-78
2023/04/23 09:00:10;;;;;;;1.97;1.57;;;;;;;30.34;30.72;98347.91;5111524;28;42073;-81
2023/04/23 09:02:41;;;;;;;1.90;1.80;;;;;;;31.42;30.26;98338.41;5112441;28;41722;-79
2023/04/23 09:05:10;;;;;;;1.50;1.40;;;;;;;32.83;27.63;98355.81;5093631;28;41704;-79
2023/04/23 09:07:37;;;;;;;1.73;1.60;;;;;;;32.28;26.81;98370.22;5110826;28;43314;-80
2023/04/23 09:10:07;;;;;;;1.73;1.63;;;;;;;30.92;27.56;98358.06;5093466;28;39555;-80
2023/04/23 09:12:36;;;;;;;1.80;1.70;;;;;;;31.29;28.02;98355.91;5093824;28;41737;-79
2023/04/23 09:15:09;;;;;;;1.80;1.70;;;;;;;30.40;28.31;98357.06;5110736;28;42874;-79
2023/04/23 09:17:40;;;;;;;1.87;1.77;;;;;;;30.20;28.65;98351.91;5108083;28;43203;-78
2023/04/23 09:20:09;;;;;;;1.93;1.73;;;;;;;31.58;27.11;98325.84;5110175;28;39748;-80
2023/04/23 09:22:41;;;;;;;2.42;1.60;;;;;;;33.72;25.88;98347.44;5111205;28;41000;-80
2023/04/23 09:25:11;;;;;;;1.70;1.60;;;;;;;34.42;23.67;98369.34;5094452;28;41675;-81
2023/04/23 09:27:39;;;;;;;1.40;1.30;;;;;;;33.32;24.85;98353.25;5110611;28;42646;-82
2023/04/23 09:30:11;;;;;;;1.90;1.60;;;;;;;31.66;25.09;98345.47;5093576;28;41102;-80
2023/04/23 09:32:42;;;;;;;2.63;1.60;;;;;;;30.94;26.39;98336.78;5110074;28;41426;-80
2023/04/23 09:35:12;;;;;;;1.70;1.60;;;;;;;29.85;28.15;98329.94;5111081;28;41967;-79
2023/04/23 09:37:42;;;;;;;1.40;1.30;;;;;;;28.99;29.58;98299.34;5111110;28;42277;-79
2023/04/23 09:40:14;;;;;;;2.73;1.73;;;;;;;29.38;29.56;98304.34;5093681;28;40832;-79
2023/04/23 09:42:48;;;;;;;2.60;1.50;;;;;;;28.63;29.75;98298.22;5107434;28;42778;-80
2023/04/23 09:45:16;;;;;;;1.50;1.40;;;;;;;27.60;31.01;98266.97;5110692;27;42958;-79
2023/04/23 09:47:51;;;;;;;3.73;1.20;;;;;;;26.75;32.66;98261.66;5113043;28;42489;-78
2023/04/23 09:50:19;;;;;;;1.63;1.50;;;;;;;26.43;33.91;98278.88;5113765;28;40849;-80
2023/04/23 09:52:55;;;;;;;2.30;1.50;;;;;;;25.99;34.14;98266.72;5097054;28;40779;-78
2023/04/23 09:55:29;;;;;;;1.87;1.70;;;;;;;25.50;34.69;98272.47;5114267;28;43598;-80
2023/04/23 09:57:58;;;;;;;1.60;1.40;;;;;;;25.47;35.46;98253.09;5111123;28;42340;-78
2023/04/23 10:00:29;;;;;;;2.13;1.60;;;;;;;25.55;35.21;98258.31;5114173;28;41908;-79
2023/04/23 10:03:00;;;;;;;3.00;1.83;;;;;;;25.35;35.40;98191.31;5097589;28;42039;-79
2023/04/23 10:05:28;;;;;;;1.57;1.47;;;;;;;26.08;35.03;98238.38;5096406;28;41560;-79
2023/04/23 10:07:56;;;;;;;1.63;1.53;;;;;;;26.95;33.32;98258.94;5096880;28;41000;-80
2023/04/23 10:10:25;;;;;;;2.40;1.87;;;;;;;27.65;34.22;98253.56;5114500;28;41025;-79
2023/04/23 10:12:55;;;;;;;2.00;1.60;;;;;;;28.79;31.72;98256.78;5113735;28;43305;-79
2023/04/23 10:15:25;;;;;;;1.80;1.70;;;;;;;29.25;30.65;98271.75;5114594;28;43615;-78
2023/04/23 10:17:54;;;;;;;1.83;1.57;;;;;;;29.12;30.21;98261.84;5113433;28;41317;-79
2023/04/23 10:20:24;;;;;;;1.60;1.50;;;;;;;29.01;31.01;98248.16;5113305;28;41189;-78
2023/04/23 10:22:55;;;;;;;2.03;1.50;;;;;;;28.87;30.42;98247.47;5113798;28;42248;-80
2023/04/23 10:25:24;;;;;;;1.50;1.37;;;;;;;28.72;30.07;98261.44;5113527;28;42648;-80
2023/04/23 10:27:53;;;;;;;2.03;1.40;;;;;;;29.22;30.76;98266.75;5113263;28;41051;-79
2023/04/23 10:30:21;;;;;;;1.57;1.40;;;;;;;30.24;28.40;98262.97;5113497;28;41008;-80
2023/04/23 10:32:49;;;;;;;2.43;1.50;;;;;;;31.45;27.02;98272.22;5114594;28;41505;-79
2023/04/23 10:35:17;;;;;;;1.90;1.48;;;;;;;32.07;25.86;98275.03;5113139;28;43815;-80
2023/04/23 10:37:48;;;;;;;1.98;1.30;;;;;;;32.44;25.10;98276.22;5113339;28;42351;-79
2023/04/23 10:40:20;;;;;;;1.67;1.30;;;;;;;32.97;25.31;98258.38;5096486;28;39938;-80
2023/04/23 10:42:48;;;;;;;1.58;1.42;;;;;;;33.82;24.37;98285.22;5096246;28;40721;-80
2023/04/23 10:45:18;;;;;;;1.48;1.20;;;;;;;35.30;22.56;98292.66;5113016;28;42687;-79
2023/04/23 10:47:46;;;;;;;1.88;1.10;;;;;;;36.54;21.36;98291.53;5114050;28;42642;-78
2023/04/23 10:50:24;;;;;;;1.98;1.20;;;;;;;37.49;20.00;98280.53;5114093;28;40986;-79
2023/04/23 10:52:55;;;;;;;1.38;1.00;;;;;;;38.14;20.02;98291.50;5113072;28;42395;-79
2023/04/23 10:55:24;;;;;;;1.20;1.15;;;;;;;39.13;18.88;98274.25;5095670;28;43011;-79
2023/04/23 10:58:00;;;;;;;1.23;1.10;;;;;;;39.59;17.72;98283.94;5113984;28;42147;-79
2023/04/23 11:00:28;;;;;;;1.38;1.00;;;;;;;39.09;17.86;98291.75;5112813;28;41018;-77
2023/04/23 11:02:56;;;;;;;1.17;1.10;;;;;;;39.41;18.60;98278.09;5113040;28;40909;-79
2023/04/23 11:05:24;;;;;;;1.25;1.15;;;;;;;39.42;18.21;98268.66;5095246;28;41863;-78
2023/04/23 11:08:05;;;;;;;1.13;1.13;;;;;;;39.25;18.17;98273.81;5113956;28;43215;-77
2023/04/23 11:10:33;;;;;;;1.20;1.10;;;;;;;38.40;18.75;98268.06;5095367;28;40915;-78
2023/04/23 11:13:20;;;;;;;1.40;1.30;;;;;;;36.77;18.80;98261.72;5112314;28;41170;-78
2023/04/23 11:15:47;;;;;;;1.33;1.23;;;;;;;35.38;20.28;98244.50;5095600;28;43374;-78
2023/04/23 11:18:15;;;;;;;2.00;1.10;;;;;;;36.14;20.63;98234.44;5095419;28;41487;-79
2023/04/23 11:20:43;;;;;;;1.75;1.20;;;;;;;37.01;19.07;98258.06;5114096;28;40744;-80
2023/04/23 11:23:31;;;;;;;1.65;1.20;;;;;;;37.06;19.36;98237.91;5112421;28;41788;-80
2023/04/23 11:26:00;;;;;;;1.65;0.98;;;;;;;36.82;19.58;98231.34;5109501;28;42559;-77
2023/04/23 11:28:29;;;;;;;1.10;0.95;;;;;;;36.43;19.19;98245.75;5111998;28;42393;-77
2023/04/23 11:30:58;;;;;;;1.10;1.00;;;;;;;36.93;18.68;98239.31;5112751;28;41530;-78
2023/04/23 11:33:26;;;;;;;1.10;0.90;;;;;;;37.74;17.54;98238.13;5095219;28;41754;-78
2023/04/23 11:35:53;;;;;;;1.20;1.10;;;;;;;37.83;17.85;98241.94;5095200;28;43246;-78
2023/04/23 11:38:22;;;;;;;1.42;1.33;;;;;;;37.87;17.98;98248.53;5094938;28;42655;-80
2023/04/23 11:40:52;;;;;;;1.20;1.10;;;;;;;37.36;18.72;98232.25;5095277;28;39824;-78
2023/04/23 11:43:20;;;;;;;1.20;1.10;;;;;;;37.19;19.08;98226.28;5095103;28;41732;-81